createdAt,value
2023-04-10T00:00:15.873Z,21.08
2023-04-10T00:02:45.171Z,21.15
2023-04-10T00:05:13.227Z,20.00
2023-04-10T00:07:42.414Z,18.05
2023-04-10T00:10:11.249Z,18.13
2023-04-10T00:12:39.048Z,20.38
2023-04-10T00:15:08.473Z,16.70
2023-04-10T00:17:36.400Z,19.85
2023-04-10T00:20:05.139Z,16.80
2023-04-10T00:22:32.944Z,16.38
2023-04-10T00:25:02.266Z,16.08
2023-04-10T00:27:30.024Z,18.60
2023-04-10T00:29:57.858Z,17.40
2023-04-10T00:32:26.513Z,13.68
2023-04-10T00:34:54.648Z,16.50
2023-04-10T00:37:22.597Z,15.00
2023-04-10T00:39:50.599Z,18.02
2023-04-10T00:42:19.725Z,14.73
2023-04-10T00:44:47.454Z,11.77
2023-04-10T00:47:15.746Z,12.55
2023-04-10T00:49:43.589Z,13.85
2023-04-10T00:52:11.605Z,14.43
2023-04-10T00:54:39.537Z,16.02
2023-04-10T00:57:07.547Z,13.95
2023-04-10T00:59:37.436Z,16.10
2023-04-10T01:02:05.738Z,15.07
2023-04-10T01:04:34.822Z,13.70
2023-04-10T01:07:09.248Z,13.45
2023-04-10T01:09:43.162Z,12.35
2023-04-10T01:12:24.405Z,14.85
2023-04-10T01:15:02.059Z,14.30
2023-04-10T01:17:33.066Z,13.88
2023-04-10T01:20:04.960Z,11.75
2023-04-10T01:22:36.641Z,16.00
2023-04-10T01:25:21.310Z,13.60
2023-04-10T01:28:03.644Z,12.35
2023-04-10T01:30:33.500Z,13.10
2023-04-10T01:33:03.133Z,13.27
2023-04-10T01:35:32.222Z,13.23
2023-04-10T01:38:03.804Z,14.82
2023-04-10T01:40:32.993Z,13.43
2023-04-10T01:43:01.705Z,13.38
2023-04-10T01:45:43.827Z,13.15
2023-04-10T01:48:12.167Z,14.40
2023-04-10T01:50:41.248Z,12.05
2023-04-10T01:53:09.393Z,13.85
2023-04-10T01:55:38.352Z,13.30
2023-04-10T01:58:08.234Z,12.85
2023-04-10T02:00:39.683Z,12.73
2023-04-10T02:03:09.204Z,12.32
2023-04-10T02:05:43.230Z,14.38
2023-04-10T02:08:15.502Z,12.10
2023-04-10T02:10:47.480Z,15.10
2023-04-10T02:13:17.281Z,16.50
2023-04-10T02:15:47.820Z,15.85
2023-04-10T02:18:17.638Z,14.40
2023-04-10T02:20:45.613Z,13.63
2023-04-10T02:23:14.335Z,13.73
2023-04-10T02:25:42.335Z,10.90
2023-04-10T02:28:10.422Z,13.65
2023-04-10T02:30:39.460Z,12.75
2023-04-10T02:33:07.588Z,12.57
2023-04-10T02:35:37.797Z,12.23
2023-04-10T02:38:05.665Z,11.52
2023-04-10T02:40:37.889Z,13.18
2023-04-10T02:43:16.234Z,12.57
2023-04-10T02:45:44.202Z,11.38
2023-04-10T02:48:15.284Z,15.18
2023-04-10T02:50:46.698Z,15.25
2023-04-10T02:53:15.536Z,12.98
2023-04-10T02:55:43.433Z,10.98
2023-04-10T02:58:13.790Z,11.25
2023-04-10T03:00:42.788Z,12.38
2023-04-10T03:03:16.252Z,13.70
2023-04-10T03:05:52.567Z,11.80
2023-04-10T03:08:26.638Z,12.85
2023-04-10T03:10:54.446Z,15.98
2023-04-10T03:13:23.401Z,12.15
2023-04-10T03:15:51.404Z,11.73
2023-04-10T03:18:19.811Z,13.65
2023-04-10T03:20:52.549Z,12.07
2023-04-10T03:23:22.106Z,12.52
2023-04-10T03:25:52.241Z,14.75
2023-04-10T03:28:20.874Z,10.70
2023-04-10T03:30:49.445Z,14.52
2023-04-10T03:33:17.718Z,13.63
2023-04-10T03:35:47.611Z,11.70
2023-04-10T03:38:17.187Z,13.35
2023-04-10T03:40:44.920Z,13.05
2023-04-10T03:43:12.830Z,17.08
2023-04-10T03:45:41.092Z,12.25
2023-04-10T03:48:09.180Z,12.98
2023-04-10T03:50:42.471Z,14.27
2023-04-10T03:53:10.529Z,12.90
2023-04-10T03:55:41.169Z,14.30
2023-04-10T03:58:09.582Z,15.55
2023-04-10T04:00:38.295Z,13.65
2023-04-10T04:03:16.008Z,13.25
2023-04-10T04:05:46.705Z,12.18
2023-04-10T04:08:28.872Z,14.57
2023-04-10T04:11:05.990Z,15.23
2023-04-10T04:13:53.066Z,12.68
2023-04-10T04:16:39.826Z,12.02
2023-04-10T04:19:27.810Z,12.15
2023-04-10T04:22:10.452Z,13.43
2023-04-10T04:25:11.587Z,11.57
2023-04-10T04:28:01.598Z,11.65
2023-04-10T04:30:37.041Z,14.77
2023-04-10T04:33:14.635Z,12.48
2023-04-10T04:35:50.888Z,13.77
2023-04-10T04:38:41.746Z,13.20
2023-04-10T04:41:26.380Z,11.82
2023-04-10T04:44:08.346Z,14.25
2023-04-10T04:46:59.016Z,12.68
2023-04-10T04:49:26.923Z,12.80
2023-04-10T04:52:15.036Z,13.50
2023-04-10T04:54:46.496Z,13.13
2023-04-10T04:57:44.348Z,13.27
2023-04-10T05:00:32.376Z,14.00
2023-04-10T05:03:11.292Z,10.77
2023-04-10T05:05:59.740Z,12.38
2023-04-10T05:08:52.999Z,13.05
2023-04-10T05:11:31.442Z,10.52
2023-04-10T05:14:17.018Z,11.63
2023-04-10T05:17:06.884Z,10.80
2023-04-10T05:20:04.971Z,11.23
2023-04-10T05:22:44.595Z,16.20
2023-04-10T05:25:22.912Z,11.55
2023-04-10T05:28:11.280Z,14.60
2023-04-10T05:30:55.428Z,14.68
2023-04-10T05:33:47.588Z,11.40
2023-04-10T05:36:26.915Z,11.45
2023-04-10T05:39:06.334Z,14.70
2023-04-10T05:41:38.302Z,11.45
2023-04-10T05:44:29.887Z,17.77
2023-04-10T05:47:18.133Z,14.05
2023-04-10T05:49:57.931Z,12.13
2023-04-10T05:52:50.639Z,12.77
2023-04-10T05:55:45.009Z,12.20
2023-04-10T05:58:22.545Z,17.25
2023-04-10T06:01:19.997Z,10.77
2023-04-10T06:04:00.807Z,11.60
2023-04-10T06:06:31.464Z,12.93
2023-04-10T06:08:59.355Z,12.15
2023-04-10T06:11:27.648Z,11.70
2023-04-10T06:13:59.468Z,13.90
2023-04-10T06:16:34.430Z,13.90
2023-04-10T06:19:02.420Z,12.23
2023-04-10T06:21:32.845Z,12.40
2023-04-10T06:24:00.719Z,13.35
2023-04-10T06:26:28.588Z,15.02
2023-04-10T06:28:56.926Z,12.50
2023-04-10T06:31:25.609Z,14.10
2023-04-10T06:33:53.666Z,12.52
2023-04-10T06:36:22.357Z,13.68
2023-04-10T06:38:59.448Z,12.38
2023-04-10T06:41:27.525Z,13.07
2023-04-10T06:43:56.956Z,12.13
2023-04-10T06:46:24.928Z,14.52
2023-04-10T06:48:53.330Z,12.02
2023-04-10T06:51:21.213Z,11.70
2023-04-10T06:53:49.130Z,11.57
2023-04-10T06:56:18.618Z,11.55
2023-04-10T06:58:46.553Z,14.07
2023-04-10T07:01:14.364Z,16.33
2023-04-10T07:03:42.448Z,12.23
2023-04-10T07:06:14.765Z,12.10
2023-04-10T07:08:56.819Z,15.65
2023-04-10T07:11:29.415Z,11.82
2023-04-10T07:13:59.818Z,13.43
2023-04-10T07:16:32.464Z,10.82
2023-04-10T07:19:03.671Z,17.40
2023-04-10T07:21:34.157Z,11.75
2023-04-10T07:24:07.538Z,12.25
2023-04-10T07:26:44.052Z,25.02
2023-04-10T07:29:13.998Z,12.68
2023-04-10T07:31:45.094Z,12.70
2023-04-10T07:34:13.400Z,12.77
2023-04-10T07:36:41.160Z,13.40
2023-04-10T07:39:09.235Z,13.35
2023-04-10T07:41:38.566Z,11.80
2023-04-10T07:44:06.451Z,12.52
2023-04-10T07:46:34.380Z,11.10
2023-04-10T07:49:02.323Z,17.52
2023-04-10T07:51:30.930Z,12.35
2023-04-10T07:53:58.777Z,15.25
2023-04-10T07:56:26.626Z,16.25
2023-04-10T07:58:56.106Z,10.70
2023-04-10T08:01:23.906Z,11.05
2023-04-10T08:03:52.170Z,11.10
2023-04-10T08:06:20.576Z,10.98
2023-04-10T08:08:48.482Z,10.35
2023-04-10T08:11:27.905Z,10.88
2023-04-10T08:14:01.552Z,10.88
2023-04-10T08:16:30.859Z,11.90
2023-04-10T08:18:59.276Z,10.20
2023-04-10T08:21:28.174Z,10.10
2023-04-10T08:23:57.397Z,11.35
2023-04-10T08:26:26.866Z,9.50
2023-04-10T08:28:58.927Z,10.05
2023-04-10T08:31:28.198Z,11.30
2023-04-10T08:33:57.018Z,10.55
2023-04-10T08:36:25.184Z,11.60
2023-04-10T08:38:53.071Z,12.02
2023-04-10T08:41:21.500Z,12.80
2023-04-10T08:43:50.186Z,12.07
2023-04-10T08:46:20.174Z,13.93
2023-04-10T08:48:52.367Z,13.25
2023-04-10T08:51:26.071Z,10.88
2023-04-10T08:53:59.911Z,9.63
2023-04-10T08:56:28.212Z,14.07
2023-04-10T08:58:56.403Z,17.05
2023-04-10T09:01:26.543Z,12.48
2023-04-10T09:03:54.947Z,10.45
2023-04-10T09:06:23.103Z,13.77
2023-04-10T09:08:50.984Z,13.80
2023-04-10T09:11:18.837Z,11.80
2023-04-10T09:13:47.043Z,17.50
2023-04-10T09:16:15.433Z,11.50
2023-04-10T09:18:46.898Z,9.85
2023-04-10T09:21:16.661Z,12.20
2023-04-10T09:23:45.386Z,12.05
2023-04-10T09:26:30.223Z,13.90
2023-04-10T09:29:00.226Z,10.80
2023-04-10T09:31:29.962Z,10.65
2023-04-10T09:34:11.812Z,11.80
2023-04-10T09:36:41.444Z,13.05
2023-04-10T09:39:10.699Z,11.43
2023-04-10T09:41:49.676Z,12.10
2023-04-10T09:44:18.995Z,9.40
2023-04-10T09:46:47.045Z,11.60
2023-04-10T09:49:16.280Z,11.85
2023-04-10T09:51:45.115Z,12.77
2023-04-10T09:54:12.909Z,12.10
2023-04-10T09:56:41.271Z,14.80
2023-04-10T09:59:09.526Z,10.63
2023-04-10T10:01:38.892Z,10.57
2023-04-10T10:04:06.884Z,9.82
2023-04-10T10:06:36.326Z,10.50
2023-04-10T10:09:06.868Z,11.80
2023-04-10T10:11:35.866Z,11.02
2023-04-10T10:14:05.726Z,11.55
2023-04-10T10:16:36.526Z,11.32
2023-04-10T10:19:09.083Z,8.68
2023-04-10T10:21:39.519Z,10.65
2023-04-10T10:24:09.322Z,9.13
2023-04-10T10:26:39.108Z,9.93
2023-04-10T10:29:10.750Z,11.23
2023-04-10T10:31:39.239Z,11.63
2023-04-10T10:34:09.815Z,9.27
2023-04-10T10:36:40.489Z,11.55
2023-04-10T10:39:26.093Z,11.18
2023-04-10T10:42:01.754Z,8.50
2023-04-10T10:44:37.417Z,9.65
2023-04-10T10:47:15.078Z,9.57
2023-04-10T10:49:56.976Z,8.77
2023-04-10T10:52:43.948Z,12.07
2023-04-10T10:55:32.592Z,9.40
2023-04-10T10:58:02.338Z,9.27
2023-04-10T11:01:19.340Z,8.68
2023-04-10T11:03:47.644Z,9.70
2023-04-10T11:06:17.277Z,8.70
2023-04-10T11:08:47.693Z,8.32
2023-04-10T11:11:20.189Z,8.50
2023-04-10T11:14:18.912Z,11.07
2023-04-10T11:16:48.631Z,9.98
2023-04-10T11:19:22.723Z,8.32
2023-04-10T11:22:08.926Z,8.68
2023-04-10T11:24:59.053Z,6.78
2023-04-10T11:27:48.783Z,8.52
2023-04-10T11:30:33.432Z,8.90
2023-04-10T11:35:31.408Z,9.15
2023-04-10T11:38:13.710Z,9.95
2023-04-10T11:40:59.338Z,9.40
2023-04-10T11:43:27.516Z,10.15
2023-04-10T11:46:03.028Z,7.78
2023-04-10T11:48:31.363Z,9.07
2023-04-10T11:51:01.664Z,12.90
2023-04-10T11:53:30.277Z,8.75
2023-04-10T11:55:59.668Z,8.25
2023-04-10T11:58:28.987Z,8.70
2023-04-10T12:00:58.329Z,7.50
2023-04-10T12:03:34.656Z,8.13
2023-04-10T12:06:02.922Z,8.07
2023-04-10T12:08:34.415Z,9.60
2023-04-10T12:11:03.888Z,7.40
2023-04-10T12:13:32.475Z,6.72
2023-04-10T12:16:01.606Z,7.07
2023-04-10T12:18:30.429Z,8.18
2023-04-10T12:20:59.482Z,10.07
2023-04-10T12:23:28.682Z,7.85
2023-04-10T12:26:10.676Z,9.80
2023-04-10T12:28:39.620Z,6.05
2023-04-10T12:31:08.093Z,6.80
2023-04-10T12:33:36.168Z,6.55
2023-04-10T12:36:04.206Z,6.28
2023-04-10T12:38:42.939Z,8.15
2023-04-10T12:41:13.114Z,8.23
2023-04-10T12:43:42.543Z,5.85
2023-04-10T12:46:11.591Z,4.97
2023-04-10T12:48:39.598Z,7.90
2023-04-10T12:51:08.069Z,5.07
2023-04-10T12:53:44.367Z,5.55
2023-04-10T12:56:14.765Z,6.90
2023-04-10T12:58:43.124Z,6.53
2023-04-10T13:01:11.193Z,4.60
2023-04-10T13:03:39.630Z,5.30
2023-04-10T13:06:08.795Z,9.23
2023-04-10T13:08:36.764Z,7.35
2023-04-10T13:11:04.674Z,4.32
2023-04-10T13:13:33.938Z,5.55
2023-04-10T13:16:02.105Z,4.35
2023-04-10T13:18:29.930Z,10.55
2023-04-10T13:20:57.899Z,6.00
2023-04-10T13:23:25.789Z,5.53
2023-04-10T13:25:54.568Z,7.55
2023-04-10T13:28:22.331Z,8.90
2023-04-10T13:30:52.265Z,5.82
2023-04-10T13:33:20.178Z,5.22
2023-04-10T13:35:48.108Z,6.65
2023-04-10T13:38:16.665Z,6.15
2023-04-10T13:40:44.654Z,5.85
2023-04-10T13:43:13.498Z,3.80
2023-04-10T13:45:41.345Z,6.40
2023-04-10T13:48:10.649Z,5.45
2023-04-10T13:50:38.922Z,6.15
2023-04-10T13:53:08.797Z,5.15
2023-04-10T13:55:38.221Z,6.65
2023-04-10T13:58:07.316Z,7.38
2023-04-10T14:00:35.243Z,4.65
2023-04-10T14:03:03.362Z,5.47
2023-04-10T14:05:32.792Z,5.95
2023-04-10T14:08:00.890Z,4.50
2023-04-10T14:10:28.732Z,5.20
2023-04-10T14:12:56.574Z,6.57
2023-04-10T14:15:24.335Z,4.53
2023-04-10T14:17:52.379Z,4.30
2023-04-10T14:20:20.450Z,5.70
2023-04-10T14:22:50.211Z,5.07
2023-04-10T14:25:18.469Z,5.25
2023-04-10T14:27:46.605Z,4.10
2023-04-10T14:30:14.908Z,4.80
2023-04-10T14:32:43.944Z,4.32
2023-04-10T14:35:12.190Z,3.75
2023-04-10T14:37:40.013Z,3.95
2023-04-10T14:40:10.876Z,8.45
2023-04-10T14:42:38.744Z,4.03
2023-04-10T14:45:07.431Z,6.57
2023-04-10T14:47:36.362Z,4.15
2023-04-10T14:50:04.710Z,4.95
2023-04-10T14:52:32.488Z,6.40
2023-04-10T14:55:00.381Z,8.73
2023-04-10T14:57:30.997Z,8.77
2023-04-10T15:00:01.362Z,7.65
2023-04-10T15:02:30.036Z,7.03
2023-04-10T15:04:57.869Z,4.20
2023-04-10T15:07:27.699Z,7.63
2023-04-10T15:09:57.745Z,6.10
2023-04-10T15:12:25.997Z,7.75
2023-04-10T15:14:55.690Z,5.18
2023-04-10T15:17:24.427Z,5.40
2023-04-10T15:19:52.792Z,4.40
2023-04-10T15:22:20.791Z,4.88
2023-04-10T15:24:50.933Z,8.13
2023-04-10T15:27:20.586Z,4.57
2023-04-10T15:29:48.466Z,4.75
2023-04-10T15:32:17.961Z,5.28
2023-04-10T15:34:46.016Z,5.38
2023-04-10T15:37:14.411Z,5.10
2023-04-10T15:39:42.263Z,5.50
2023-04-10T15:42:10.156Z,5.25
2023-04-10T15:44:38.167Z,3.85
2023-04-10T15:47:06.152Z,4.28
2023-04-10T15:49:38.262Z,5.68
2023-04-10T15:52:06.826Z,4.18
2023-04-10T15:54:35.350Z,4.22
2023-04-10T15:57:04.064Z,7.60
2023-04-10T15:59:33.345Z,7.97
2023-04-10T16:02:01.412Z,6.80
2023-04-10T16:04:29.748Z,6.53
2023-04-10T16:06:59.228Z,10.68
2023-04-10T16:09:27.295Z,5.22
2023-04-10T16:11:56.067Z,5.95
2023-04-10T16:14:24.175Z,6.72
2023-04-10T16:16:52.291Z,6.97
2023-04-10T16:19:20.209Z,5.55
2023-04-10T16:21:48.448Z,4.97
2023-04-10T16:24:17.700Z,4.47
2023-04-10T16:26:45.568Z,6.50
2023-04-10T16:29:13.838Z,7.65
2023-04-10T16:31:41.629Z,6.80
2023-04-10T16:34:09.543Z,5.15
2023-04-10T16:36:37.603Z,6.18
2023-04-10T16:39:05.785Z,5.25
2023-04-10T16:41:34.955Z,5.55
2023-04-10T16:44:03.306Z,5.72
2023-04-10T16:46:33.090Z,5.20
2023-04-10T16:49:01.580Z,7.80
2023-04-10T16:51:29.458Z,7.55
2023-04-10T16:53:57.610Z,8.88
2023-04-10T16:56:25.681Z,8.77
2023-04-10T16:58:55.151Z,9.18
2023-04-10T17:01:26.079Z,5.55
2023-04-10T17:03:55.224Z,6.97
2023-04-10T17:06:23.338Z,8.43
2023-04-10T17:08:51.213Z,7.80
2023-04-10T17:11:18.970Z,10.00
2023-04-10T17:13:47.329Z,9.10
2023-04-10T17:16:16.960Z,12.32
2023-04-10T17:18:45.158Z,10.65
2023-04-10T17:21:13.718Z,10.68
2023-04-10T17:23:41.845Z,10.10
2023-04-10T17:26:14.369Z,10.88
2023-04-10T17:28:44.481Z,8.43
2023-04-10T17:31:12.422Z,8.73
2023-04-10T17:33:43.318Z,6.82
2023-04-10T17:36:12.475Z,8.50
2023-04-10T17:38:41.010Z,7.15
2023-04-10T17:41:09.529Z,7.45
2023-04-10T17:43:37.477Z,12.32
2023-04-10T17:46:05.595Z,8.65
2023-04-10T17:48:34.621Z,8.63
2023-04-10T17:51:07.430Z,10.05
2023-04-10T17:53:36.043Z,8.38
2023-04-10T17:56:03.849Z,10.60
2023-04-10T17:58:32.108Z,9.43
2023-04-10T18:01:00.010Z,7.07
2023-04-10T18:03:28.036Z,8.35
2023-04-10T18:05:55.866Z,9.82
2023-04-10T18:08:25.310Z,7.95
2023-04-10T18:10:53.156Z,9.45
2023-04-10T18:13:21.208Z,5.57
2023-04-10T18:15:49.079Z,9.43
2023-04-10T18:18:16.997Z,6.20
2023-04-10T18:20:44.848Z,6.57
2023-04-10T18:23:12.573Z,6.78
2023-04-10T18:25:41.735Z,6.82
2023-04-10T18:28:15.282Z,6.63
2023-04-10T18:30:43.908Z,6.63
2023-04-10T18:33:12.079Z,5.93
2023-04-10T18:35:39.965Z,7.97
2023-04-10T18:38:07.933Z,5.03
2023-04-10T18:40:36.961Z,5.25
2023-04-10T18:43:06.630Z,6.43
2023-04-10T18:45:35.080Z,5.97
2023-04-10T18:48:03.076Z,5.30
2023-04-10T18:50:31.813Z,6.45
2023-04-10T18:52:59.606Z,7.93
2023-04-10T18:55:27.380Z,7.78
2023-04-10T18:57:55.167Z,5.28
2023-04-10T19:00:24.450Z,6.57
2023-04-10T19:02:52.596Z,6.78
2023-04-10T19:05:20.717Z,5.32
2023-04-10T19:08:00.760Z,5.05
2023-04-10T19:13:00.889Z,5.40
2023-04-10T19:15:30.157Z,5.63
2023-04-10T19:17:58.196Z,6.75
2023-04-10T19:20:51.003Z,7.20
2023-04-10T19:23:14.067Z,7.78
2023-04-10T19:25:42.589Z,8.88
2023-04-10T19:28:11.110Z,8.73
2023-04-10T19:30:40.343Z,7.03
2023-04-10T19:33:08.207Z,8.82
2023-04-10T19:35:36.004Z,7.25
2023-04-10T19:38:03.850Z,6.47
2023-04-10T19:40:32.155Z,6.55
2023-04-10T19:43:02.020Z,6.88
2023-04-10T19:45:32.193Z,6.15
2023-04-10T19:48:01.486Z,13.73
2023-04-10T19:50:30.859Z,10.38
2023-04-10T19:52:59.484Z,8.80
2023-04-10T19:55:27.657Z,8.43
2023-04-10T19:57:55.943Z,7.15
2023-04-10T20:00:23.784Z,7.90
2023-04-10T20:02:51.886Z,9.30
2023-04-10T20:05:21.283Z,10.90
2023-04-10T20:07:49.441Z,5.22
2023-04-10T20:10:17.364Z,7.03
2023-04-10T20:12:45.214Z,5.75
2023-04-10T20:15:13.681Z,6.93
2023-04-10T20:17:41.680Z,5.35
2023-04-10T20:20:12.411Z,6.18
2023-04-10T20:22:41.512Z,7.18
2023-04-10T20:25:10.295Z,17.40
2023-04-10T20:27:38.075Z,9.30
2023-04-10T20:30:07.482Z,8.25
2023-04-10T20:32:35.401Z,6.63
2023-04-10T20:35:03.290Z,10.45
2023-04-10T20:37:31.154Z,6.97
2023-04-10T20:40:00.809Z,10.23
2023-04-10T20:42:28.835Z,8.05
2023-04-10T20:44:56.919Z,5.47
2023-04-10T20:47:24.754Z,9.07
2023-04-10T20:49:52.635Z,6.63
2023-04-10T20:52:20.490Z,5.43
2023-04-10T20:54:48.478Z,9.60
2023-04-10T20:57:17.653Z,12.38
2023-04-10T20:59:46.307Z,10.07
2023-04-10T21:02:14.350Z,7.90
2023-04-10T21:04:42.136Z,10.45
2023-04-10T21:07:10.180Z,8.10
2023-04-10T21:09:38.083Z,11.88
2023-04-10T21:12:06.137Z,10.13
2023-04-10T21:14:36.071Z,11.05
2023-04-10T21:17:04.029Z,14.07
2023-04-10T21:19:31.826Z,11.32
2023-04-10T21:21:59.757Z,16.10
2023-04-10T21:24:27.780Z,18.17
2023-04-10T21:26:55.587Z,12.77
2023-04-10T21:29:23.525Z,13.82
2023-04-10T21:31:52.794Z,14.13
2023-04-10T21:34:20.732Z,13.65
2023-04-10T21:36:48.507Z,15.75
2023-04-10T21:39:16.482Z,11.10
2023-04-10T21:41:45.061Z,14.10
2023-04-10T21:44:13.033Z,14.20
2023-04-10T21:46:40.871Z,15.00
2023-04-10T21:49:10.395Z,13.38
2023-04-10T21:51:38.152Z,13.07
2023-04-10T21:54:06.206Z,15.57
2023-04-10T21:56:35.538Z,14.68
2023-04-10T21:59:03.427Z,16.52
2023-04-10T22:01:31.342Z,14.55
2023-04-10T22:03:59.267Z,17.65
2023-04-10T22:06:28.765Z,11.75
2023-04-10T22:08:56.669Z,12.82
2023-04-10T22:11:24.805Z,17.15
2023-04-10T22:13:53.670Z,17.52
2023-04-10T22:16:22.624Z,15.32
2023-04-10T22:18:50.786Z,13.02
2023-04-10T22:21:18.534Z,20.67
2023-04-10T22:23:47.851Z,17.63
2023-04-10T22:26:15.956Z,17.98
2023-04-10T22:28:43.692Z,19.50
2023-04-10T22:31:16.485Z,16.60
2023-04-10T22:33:44.587Z,18.88
2023-04-10T22:36:12.941Z,14.77
2023-04-10T22:38:40.805Z,17.63
2023-04-10T22:41:10.987Z,13.85
2023-04-10T22:43:39.010Z,20.35
2023-04-10T22:46:06.937Z,24.90
2023-04-10T22:48:34.895Z,13.38
2023-04-10T22:51:03.884Z,11.10
2023-04-10T22:53:31.833Z,8.60
2023-04-10T22:55:59.837Z,4.95
2023-04-10T22:58:29.126Z,8.95
2023-04-10T23:00:56.972Z,10.82
2023-04-10T23:03:24.935Z,9.60
2023-04-10T23:05:53.120Z,8.20
2023-04-10T23:08:20.936Z,7.35
2023-04-10T23:10:48.943Z,3.40
2023-04-10T23:13:16.647Z,10.32
2023-04-10T23:15:51.514Z,2.35
2023-04-10T23:18:19.800Z,8.50
2023-04-10T23:20:47.798Z,5.85
2023-04-10T23:23:15.921Z,5.93
2023-04-10T23:25:43.749Z,7.20
2023-04-10T23:28:11.761Z,3.70
2023-04-10T23:30:40.512Z,7.50
2023-04-10T23:33:09.752Z,4.53
2023-04-10T23:35:37.614Z,5.50
2023-04-10T23:38:05.593Z,8.95
2023-04-10T23:40:33.444Z,9.20
2023-04-10T23:43:01.328Z,8.32
2023-04-10T23:45:29.334Z,10.88
2023-04-10T23:47:57.117Z,7.35
2023-04-10T23:50:27.601Z,8.05
2023-04-10T23:52:55.505Z,5.38
2023-04-10T23:55:23.839Z,8.88
2023-04-10T23:57:51.806Z,9.82
